Información del aeropuerto LEVX

Información de pista
Pista 02 Longitud 7874 ft Anchura 148 ft
Elevación 855 ft Umbral 0 ft Rumbo 11
Pista 20 Longitud 7874 ft Anchura 148 ft
Elevación 829 ft Umbral 0 ft Rumbo 191
Frecuencias del aeropuerto
Tipo APP Nombre SANTIAGO A Frecuencia 120.2 MHZ
Tipo GND Nombre GND Frecuencia 121.7 MHZ
Tipo TWR Nombre TWR Frecuencia 118.45 MHZ
Radioayudas del aeropuerto
Tipo VOR-DME Nombre Vigo Frecuencia 113600 KHZ
Tipo NDB Nombre Vigo Frecuencia 345 KHZ
Tipo NDB Nombre Vigo Frecuencia 433 KHZ
Información meteorológica del aeropuerto y NOTAM
ADDS - METARS form results

(2138 UTC 07 March 2021)
Data provider http://aviationweather.gov/metar/data/
 
METAR text: LEVX 072130Z 03011KT 350V070 9999 BKN040 08/02 Q1017 NOSIG
Conditions at: LEVX (VIGO/PEINADOR , ES) observed 2130 UTC 07 March 2021
Temperature: 8.0°C (46°F)
Dewpoint: 2.0°C (36°F) [RH = 66%]
Pressure (altimeter): 30.03 inches Hg (1017.0 mb)
Winds: from the NNE (30 degrees) at 13 MPH (11 knots; 5.7 m/s)
Visibility: 6 or more miles (10+ km)
Ceiling: 4000 feet AGL
Clouds: broken clouds at 4000 feet AGL
Weather: no significant weather observed at this time

METAR text: LEVX 072100Z 02012KT 330V050 9999 BKN040 08/02 Q1017 NOSIG
Conditions at: LEVX (VIGO/PEINADOR , ES) observed 2100 UTC 07 March 2021
Temperature: 8.0°C (46°F)
Dewpoint: 2.0°C (36°F) [RH = 66%]
Pressure (altimeter): 30.03 inches Hg (1017.0 mb)
Winds: from the NNE (20 degrees) at 14 MPH (12 knots; 6.2 m/s)
Visibility: 6 or more miles (10+ km)
Ceiling: 4000 feet AGL
Clouds: broken clouds at 4000 feet AGL
Weather: no significant weather observed at this time

Forecast for: LEVX (VIGO/PEINADOR , ES)
Text: TAF LEVX 071700Z 0718/0818 36008KT CAVOK TX14/0718Z TN04/0806Z
Forecast period: 1800 UTC 07 March 2021 to 1800 UTC 08 March 2021
Forecast type: FROM: standard forecast or significant change
Winds: from the N (360 degrees) at 9 MPH (8 knots; 4.1 m/s)
Visibility: 6 or more miles (10+ km)
Ceiling: unknown
Clouds: missing
Weather: no significant weather forecast for this period